1876 Hurricane NOT_NAMED (1876200N16293)


IBTrACS version v04r00. Visit IBTrACS website for data access.
Please direct all questions to the IBTrACS Q and A forum

Storm track - Intensity - Wind Radii - Intensity Data - Source Data - All data

Summary Information

Storm ID 1876200N16293
Start Jul 17 12Z
Landfall Jul 21 18Z, Jul 23 06Z
Max Intensity 75 kt (Jul 19 12Z)
End Jul 23 18Z
ATCF IDs
Track status Best track data.

Storm track plot

Map of storm track

Intensity plots

Map of storm track

Radial wind information

No radial wind information for this storm


Position and Intensity Table

BASIN ISO_TIME_________ NATURE LAT LON MLC WIND
degrees north degrees east kts
NA 1876-07-17 12:00:00 TS 15.50 -67.00 45
NA 15:00:00 TS 15.60 -67.66 45
NA 18:00:00 TS 15.70 -68.30 45
NA 21:00:00 TS 15.80 -68.90 45
NA 1876-07-18 00:00:00 TS 15.90 -69.50 45
NA 03:00:00 TS 16.00 -70.15 47
NA 06:00:00 TS 16.10 -70.80 50
NA 09:00:00 TS 16.20 -71.40 52
NA 12:00:00 TS 16.30 -72.00 55
NA 15:00:00 TS 16.40 -72.65 57
NA 18:00:00 TS 16.50 -73.30 60
NA 21:00:00 TS 16.60 -73.90 60
NA 1876-07-19 00:00:00 TS 16.70 -74.50 60
NA 03:00:00 TS 16.81 -75.15 65
NA 06:00:00 TS 16.90 -75.80 70
NA 09:00:00 TS 16.95 -76.40 72
NA 12:00:00 TS 17.00 -77.00 75
NA 15:00:00 TS 17.10 -77.64 75
NA 18:00:00 TS 17.20 -78.30 75
NA 21:00:00 TS 17.25 -78.95 75
NA 1876-07-20 00:00:00 TS 17.30 -79.60 75
NA 03:00:00 TS 17.40 -80.26 75
NA 06:00:00 TS 17.50 -80.90 75
NA 09:00:00 TS 17.55 -81.50 75
NA 12:00:00 TS 17.60 -82.10 75
NA 15:00:00 TS 17.70 -82.74 75
NA 18:00:00 TS 17.80 -83.40 75
NA 21:00:00 TS 17.85 -84.05 75
NA 1876-07-21 00:00:00 TS 17.90 -84.70 75
NA 03:00:00 TS 18.00 -85.35 75
NA 06:00:00 TS 18.10 -86.00 75
NA 09:00:00 TS 18.15 -86.65 75
NA 12:00:00 TS 18.20 -87.30 75
NA 15:00:00 TS 18.30 -87.95 70
NA 18:00:00 TS 18.40 -88.60 65
NA 21:00:00 TS 18.45 -89.25 60
NA 1876-07-22 00:00:00 TS 18.50 -89.90 55
NA 03:00:00 TS 18.60 -90.56 55
NA 06:00:00 TS 18.70 -91.20 55
NA 09:00:00 TS 18.75 -91.80 60
NA 12:00:00 TS 18.80 -92.40 65
NA 15:00:00 TS 18.90 -93.04 67
NA 18:00:00 TS 19.00 -93.70 70
NA 21:00:00 TS 19.05 -94.35 72
NA 1876-07-23 00:00:00 TS 19.10 -95.00 75
NA 03:00:00 TS 19.20 -95.65 62
NA 06:00:00 TS 19.30 -96.30 50
NA 09:00:00 TS 19.36 -96.95 40
NA 12:00:00 TS 19.40 -97.60 30
NA 15:00:00 TS 19.45 -98.25 25
NA 18:00:00 TS 19.50 -98.90 20

Source Information

Agency Information
USA
TOKYO
CMA
HKO
NEWDELHI
REUNION
BOM
NADI
WELLINGTON
DS824
TD9636
TD9635
NEUMANN
MLC

All available IBTrACS Data

SEASON BASIN SUBBASIN ISO_TIME_________ NATURE LAT LON DIST2LAND LANDFALL IFLAG USA SSHS MLC LAT MLC LON MLC CLASS MLC WIND STORM SPEED STORM DIR
Year degrees north degrees east km km 1 degrees north degrees east kts kts degrees
1876 NA CS 1876-07-17 12:00:00 TS 15.50 -67.00 268 257 _____________O -1 15.50 -67.00 TS 45 13 279
1876 NA CS 15:00:00 TS 15.60 -67.66 262 260 _____________P -1 15.60 -67.66 TS 45 13 279
1876 NA CS 18:00:00 TS 15.70 -68.30 272 268 _____________O -1 15.70 -68.30 TS 45 12 279
1876 NA CS 21:00:00 TS 15.80 -68.90 268 260 _____________P -1 15.80 -68.90 TS 45 12 280
1876 NA CS 1876-07-18 00:00:00 TS 15.90 -69.50 267 226 _____________O -1 15.90 -69.50 TS 45 12 279
1876 NA CS 03:00:00 TS 16.00 -70.15 219 179 _____________P -1 16.00 -70.15 TS 47 13 279
1876 NA CS 06:00:00 TS 16.10 -70.80 179 156 _____________O -1 16.10 -70.80 TS 50 12 279
1876 NA CS 09:00:00 TS 16.20 -71.40 156 148 _____________P -1 16.20 -71.40 TS 52 12 280
1876 NA CS 12:00:00 TS 16.30 -72.00 158 158 _____________O -1 16.30 -72.00 TS 55 12 279
1876 NA CS 15:00:00 TS 16.40 -72.65 190 176 _____________P -1 16.40 -72.65 TS 57 13 279
1876 NA CS 18:00:00 TS 16.50 -73.30 176 156 _____________O -1 16.50 -73.30 TS 60 12 279
1876 NA CS 21:00:00 TS 16.60 -73.90 156 148 _____________P -1 16.60 -73.90 TS 60 12 280
1876 NA CS 1876-07-19 00:00:00 TS 16.70 -74.50 158 158 _____________O -1 16.70 -74.50 TS 60 12 280
1876 NA CS 03:00:00 TS 16.81 -75.15 169 119 _____________P -1 16.81 -75.15 TS 65 13 279
1876 NA CS 06:00:00 TS 16.90 -75.80 119 111 _____________O -1 16.90 -75.80 HU 70 12 277
1876 NA CS 09:00:00 TS 16.95 -76.40 111 81 _____________P -1 16.95 -76.40 HU 72 12 275
1876 NA CS 12:00:00 TS 17.00 -77.00 81 70 _____________O -1 17.00 -77.00 HU 75 12 277
1876 NA CS 15:00:00 TS 17.10 -77.64 79 79 _____________P -1 17.10 -77.64 HU 75 13 279
1876 NA CS 18:00:00 TS 17.20 -78.30 100 100 _____________O -1 17.20 -78.30 HU 75 13 277
1876 NA CS 21:00:00 TS 17.25 -78.95 128 119 _____________P -1 17.25 -78.95 HU 75 12 275
1876 NA CS 1876-07-20 00:00:00 TS 17.30 -79.60 162 162 _____________O -1 17.30 -79.60 HU 75 13 277
1876 NA CS 03:00:00 TS 17.40 -80.26 220 220 _____________P -1 17.40 -80.26 HU 75 13 279
1876 NA CS 06:00:00 TS 17.50 -80.90 275 275 _____________O -1 17.50 -80.90 HU 75 12 277
1876 NA CS 09:00:00 TS 17.55 -81.50 318 292 _____________P -1 17.55 -81.50 HU 75 11 275
1876 NA CS 12:00:00 TS 17.60 -82.10 292 272 _____________O -1 17.60 -82.10 HU 75 12 277
1876 NA CS 15:00:00 TS 17.70 -82.74 272 243 _____________P -1 17.70 -82.74 HU 75 13 279
1876 NA CS 18:00:00 TS 17.80 -83.40 243 225 _____________O -1 17.80 -83.40 HU 75 13 277
1876 NA CS 21:00:00 TS 17.85 -84.05 222 222 _____________P -1 17.85 -84.05 HU 75 12 275
1876 NA CS 1876-07-21 00:00:00 TS 17.90 -84.70 223 223 _____________O -1 17.90 -84.70 HU 75 12 277
1876 NA CS 03:00:00 TS 18.00 -85.35 235 187 _____________P -1 18.00 -85.35 HU 75 13 279
1876 NA CS 06:00:00 TS 18.10 -86.00 187 127 _____________O -1 18.10 -86.00 HU 75 12 277
1876 NA CS 09:00:00 TS 18.15 -86.65 116 52 _____________P -1 18.15 -86.65 HU 75 12 275
1876 NA CS 12:00:00 TS 18.20 -87.30 52 0 _____________O -1 18.20 -87.30 HU 75 12 277
1876 NA CS 15:00:00 TS 18.30 -87.95 10 0 _____________P -1 18.30 -87.95 HU 70 13 279
1876 NA NA 18:00:00 TS 18.40 -88.60 0 0 _____________O -1 18.40 -88.60 HU 65 12 277
1876 NA NA 21:00:00 TS 18.45 -89.25 0 0 _____________P -1 18.45 -89.25 HU 60 12 275
1876 NA NA 1876-07-22 00:00:00 TS 18.50 -89.90 0 0 _____________O -1 18.50 -89.90 TS 55 12 277
1876 NA NA 03:00:00 TS 18.60 -90.56 0 0 _____________P -1 18.60 -90.56 TS 55 12 279
1876 NA GM 06:00:00 TS 18.70 -91.20 0 0 _____________O -1 18.70 -91.20 TS 55 12 277
1876 NA GM 09:00:00 TS 18.75 -91.80 15 15 _____________P -1 18.75 -91.80 TS 60 11 275
1876 NA GM 12:00:00 TS 18.80 -92.40 22 22 _____________O -1 18.80 -92.40 HU 65 12 277
1876 NA GM 15:00:00 TS 18.90 -93.04 46 46 _____________P -1 18.90 -93.04 HU 67 12 279
1876 NA GM 18:00:00 TS 19.00 -93.70 78 78 _____________O -1 19.00 -93.70 HU 70 12 277
1876 NA GM 21:00:00 TS 19.05 -94.35 77 49 _____________P -1 19.05 -94.35 HU 72 12 275
1876 NA GM 1876-07-23 00:00:00 TS 19.10 -95.00 49 44 _____________O -1 19.10 -95.00 HU 75 12 277
1876 NA GM 03:00:00 TS 19.20 -95.65 45 0 _____________P -1 19.20 -95.65 HU 62 12 279
1876 NA NA 06:00:00 TS 19.30 -96.30 0 0 _____________O -1 19.30 -96.30 TS 50 12 277
1876 NA NA 09:00:00 TS 19.36 -96.95 0 0 _____________P -1 19.36 -96.95 TS 40 12 275
1876 NA NA 12:00:00 TS 19.40 -97.60 0 0 _____________O -1 19.40 -97.60 TD 30 12 274
1876 NA NA 15:00:00 TS 19.45 -98.25 0 0 _____________P -1 19.45 -98.25 TD 25 12 275
1876 NA NA 18:00:00 TS 19.50 -98.90 0 _____________O -1 19.50 -98.90 TD 20 12 275